DANE POGODOWE

WCZORAJ
Time Temp. Dewp. Hum. Bar.
00:03 25.7 20.7 74 1023.7
00:13 25.7 20.7 74 1023.7
00:23 25.6 20.6 74 1023.7
00:33 25.6 20.6 74 1023.7
00:43 25.6 20.6 74 1023.8
00:53 25.5 20.5 74 1023.8
01:03 25.5 20.5 74 1023.8
01:13 25.5 20.5 74 1023.8
01:23 25.5 20.5 74 1023.8
01:33 25.4 20.4 74 1023.8
01:44 25.4 20.4 74 1023.7
01:54 25.4 20.4 74 1023.6
02:03 25.4 20.4 74 1023.4
02:13 25.3 20.3 74 1023.3
02:24 25.3 20.3 74 1023.3
02:34 25.3 20.3 74 1023.2
02:44 25.2 20.2 74 1023.1
02:54 25.2 20 73 1023
03:04 25.2 20.2 74 1023
03:14 25.2 20 73 1022.9
03:24 25.1 19.9 73 1022.9
03:34 25.1 19.9 73 1022.8
03:44 25.1 19.9 73 1022.6
03:54 25.1 19.9 73 1022.5
04:05 25.1 19.9 73 1022.4
04:15 25 19.8 73 1022.2
04:24 25 19.8 73 1022.1
04:34 24.9 19.9 74 1022
04:45 24.9 19.7 73 1021.8
04:55 24.9 19.7 73 1021.8
05:05 24.8 19.4 72 1021.7
05:15 24.8 19.4 72 1021.7
05:25 24.7 19.1 71 1021.7
05:35 24.7 19.3 72 1021.7
05:45 24.7 19.3 72 1021.7
05:55 24.6 19 71 1021.7
06:05 24.6 19 71 1021.7
06:15 24.6 19.2 72 1021.7
06:26 24.5 19.1 72 1021.7
06:36 24.5 19.1 72 1021.6
06:45 24.5 18.9 71 1021.7
06:55 24.5 18.9 71 1021.7
07:06 24.6 19.7 74 1021.8
07:16 25.2 20.2 74 1021.9
07:26 25.5 20.1 72 1022.1
07:36 25.8 20.1 71 1022.2
07:46 26 20.1 70 1022.2
07:56 26.1 20.2 70 1022.2
08:06 26.2 20.1 69 1022.3
08:16 26.2 20.1 69 1022.4
08:26 26.3 19.9 68 1022.5
08:36 26.1 20.4 71 1022.6
08:47 25.9 20 70 1022.6
08:57 25.7 19.6 69 1022.6
09:06 25.8 20.1 71 1022.6
09:16 26.1 20.4 71 1022.6
09:27 26.2 21 73 1022.5
09:37 26.3 20.6 71 1022.6
09:47 26.3 20.4 70 1022.5
09:57 26.3 20.4 70 1022.5
10:07 26.4 20.5 70 1022.4
10:17 26.5 20.6 70 1022.3
10:27 26.5 20.6 70 1022.2
10:37 26.6 20.7 70 1022.1
10:47 26.7 20.8 70 1022.1
10:57 26.7 20.8 70 1022.1
11:08 26.8 20.6 69 1022.2
11:18 26.9 20.7 69 1022.2
11:27 27 20.8 69 1022.2
11:38 27.1 20.9 69 1022.2
11:48 27.1 20.9 69 1022.4
11:58 27 20.4 67 1022.4
12:08 26.8 20.4 68 1022.5
12:18 26.6 20.2 68 1022.7
12:28 26.5 20.4 69 1022.7
12:38 26.3 20.2 69 1022.6
12:48 26.3 20.4 70 1022.6
12:59 26.2 20.1 69 1022.6
13:09 26.2 20.3 70 1022.5
13:18 26.2 19.8 68 1022.5
13:29 26.3 19.9 68 1022.4
13:39 26.3 19.7 67 1022.2
13:49 26.3 19.7 67 1022.1
13:59 26.3 19.4 66 1021.9
14:09 26.4 19.5 66 1021.8
14:19 26.4 19.3 65 1021.7
14:29 26.5 19.4 65 1021.6
14:39 26.6 19.5 65 1021.4
14:49 26.7 19.6 65 1021.4
14:59 26.9 19.5 64 1021.3
15:09 27 19.6 64 1021.2
15:20 27.1 19.7 64 1021.1
15:29 27.2 20.1 65 1021
15:39 27.4 20.2 65 1020.9
15:50 27.6 19.9 63 1021
16:00 27.6 19.7 62 1020.9
16:09 27.7 20 63 1020.9
16:19 27.8 19.9 62 1020.9
16:30 27.9 20.2 63 1020.9
16:40 28 20.3 63 1020.9
16:50 28 20 62 1020.9
17:00 28.1 20.1 62 1020.9
17:10 28.1 20.1 62 1020.9
17:20 28.1 19.9 61 1021
17:30 28.1 20.1 62 1021
17:40 28.1 19.9 61 1021
17:50 28.1 19.9 61 1021
18:00 28.1 20.1 62 1021.1
18:11 28.1 20.1 62 1021.1
18:20 28 20 62 1021
18:30 28 20 62 1020.9
18:41 28 20 62 1020.9
18:51 27.9 19.9 62 1021
19:01 27.8 19.9 62 1021
19:11 27.8 20.1 63 1020.9
19:21 27.7 20 63 1021
19:31 27.6 20.2 64 1021
19:41 27.5 20.1 64 1020.9
19:52 27.4 20 64 1020.9
20:01 27.3 19.9 64 1020.8
20:11 27.2 20.1 65 1020.8
20:21 27.1 20 65 1020.8
20:32 27 20.1 66 1020.9
20:41 26.9 20 66 1020.9
20:51 26.9 20 66 1020.9
21:02 26.8 19.9 66 1020.9
21:12 26.7 19.8 66 1020.9
21:22 26.6 19.7 66 1020.9
21:32 26.6 19.7 66 1020.9
21:42 26.5 19.6 66 1021
21:52 26.4 19.8 67 1021
22:02 26.4 19.8 67 1021
22:13 26.3 19.7 67 1020.9
22:22 26.2 19.6 67 1021
22:32 26.2 19.6 67 1021
22:42 26.1 19.5 67 1021
22:53 26.1 19.7 68 1021.1
23:02 26 19.6 68 1021.1
23:12 26 19.6 68 1021.2
23:23 26 19.6 68 1021.2
23:33 25.9 19.5 68 1021.3
23:43 25.8 19.4 68 1021.4
23:52 25.8 19.4 68 1021.4

STATYSTYKA DNIA

2020-08-03
TEMPERATURA
ŚREDNIA
26.3
MAKSIMUM
28.1
17:00
MINIMUM
24.5
06:26
CIŚNIENIE
ŚREDNIA
1021.9
MAKSIMUM
1023.8
00:43
MINIMUM
1020.8
20:01
PUNKT ROSY
ŚREDNIA
20.0
MAKSIMUM
21.0
09:27
MINIMUM
18.9
06:45
WILGOTNOŚĆ
ŚREDNIA
69
MAKSIMUM
74
00:03
MINIMUM
61
17:20
TEMPERATURA (°C)
MINIMUM
24.5
MAKSIMUM
28.1
ŚREDNIA
26.3
CIŚNIENIE (hpa)
MINIMUM
1020.8
MAKSIMUM
1023.8
ŚREDNIA
1021.9
DEVICE